Time;durP1;ratioP1;P1;durP2;ratioP2;P2;SDS_P1;SDS_P2;PMS_P1;PMS_P2;Temp;Humidity;BMP_temperature;BMP_pressure;BME280_temperature;BME280_humidity;BME280_pressure;Samples;Min_cycle;Max_cycle;Signal;HPM_P1;HPM_P2
2023/11/25 00:00:27;;;;;;;5.05;3.33;;;;;;;4.34;100.00;101946.13;5022117;28;20430;-80
2023/11/25 00:02:53;;;;;;;10.88;3.83;;;;;;;4.27;100.00;101951.97;5055060;28;20037;-80
2023/11/25 00:05:19;;;;;;;8.48;4.40;;;;;;;4.21;100.00;101952.38;5038519;28;20087;-79
2023/11/25 00:07:45;;;;;;;6.22;3.63;;;;;;;4.21;100.00;101950.59;5038293;28;20033;-81
2023/11/25 00:10:12;;;;;;;10.43;3.88;;;;;;;4.19;100.00;101944.50;5022060;28;20064;-80
2023/11/25 00:12:40;;;;;;;8.98;3.72;;;;;;;4.09;100.00;101935.44;5038785;28;20029;-80
2023/11/25 00:15:06;;;;;;;7.15;3.50;;;;;;;4.07;100.00;101943.53;5038423;28;20029;-80
2023/11/25 00:17:32;;;;;;;7.28;3.55;;;;;;;3.99;100.00;101943.19;5037815;28;20040;-80
2023/11/25 00:19:58;;;;;;;8.35;3.47;;;;;;;3.86;100.00;101937.84;5021093;28;20499;-79
2023/11/25 00:22:24;;;;;;;7.80;3.25;;;;;;;3.80;100.00;101937.41;5021832;28;20037;-80
2023/11/25 00:24:50;;;;;;;7.32;3.50;;;;;;;3.71;100.00;101931.75;5021700;28;20375;-80
2023/11/25 00:27:17;;;;;;;7.72;3.30;;;;;;;3.67;100.00;101932.06;5037676;28;20036;-80
2023/11/25 00:29:43;;;;;;;10.07;4.65;;;;;;;3.66;100.00;101930.38;5021200;28;20045;-80
2023/11/25 00:32:10;;;;;;;8.93;3.75;;;;;;;3.66;100.00;101920.56;5021571;28;20468;-80
2023/11/25 00:34:36;;;;;;;11.18;4.20;;;;;;;3.71;100.00;101925.59;5021366;28;20036;-80
2023/11/25 00:37:03;;;;;;;6.18;3.25;;;;;;;3.71;100.00;101917.63;5037876;28;20128;-80
2023/11/25 00:39:29;;;;;;;6.10;4.38;;;;;;;3.68;100.00;101913.34;5021018;28;20479;-80
2023/11/25 00:41:55;;;;;;;8.45;4.13;;;;;;;3.65;100.00;101915.34;5021302;28;20040;-80
2023/11/25 00:44:21;;;;;;;10.38;4.20;;;;;;;3.58;100.00;101919.38;5021367;28;20114;-81
2023/11/25 00:46:47;;;;;;;19.02;3.88;;;;;;;3.55;100.00;101919.56;5037663;28;20468;-80
2023/11/25 00:49:15;;;;;;;9.45;4.10;;;;;;;3.51;100.00;101913.59;5021190;28;20116;-80
2023/11/25 00:51:44;;;;;;;8.98;3.70;;;;;;;3.48;100.00;101906.69;5037556;28;20356;-81
2023/11/25 00:54:09;;;;;;;10.52;3.80;;;;;;;3.49;100.00;101902.22;5037725;28;20055;-81
2023/11/25 00:56:35;;;;;;;6.72;3.25;;;;;;;3.45;100.00;101901.56;5020917;28;20476;-81
2023/11/25 00:59:01;;;;;;;11.02;4.40;;;;;;;3.39;100.00;101893.16;5020817;28;20036;-81
2023/11/25 01:01:27;;;;;;;9.85;4.05;;;;;;;3.37;100.00;101895.91;5021609;28;20041;-81
2023/11/25 01:03:52;;;;;;;10.18;4.25;;;;;;;3.36;100.00;101896.88;5037344;28;20387;-81
2023/11/25 01:06:21;;;;;;;8.48;3.42;;;;;;;3.43;100.00;101892.00;5070790;28;20060;-81
2023/11/25 01:08:46;;;;;;;12.07;4.20;;;;;;;3.51;100.00;101887.84;5037515;28;20108;-81
2023/11/25 01:11:15;;;;;;;12.23;4.25;;;;;;;3.57;100.00;101891.06;5020838;28;20490;-81
2023/11/25 01:13:41;;;;;;;6.35;4.00;;;;;;;3.66;100.00;101885.16;5021020;28;20029;-81
2023/11/25 01:16:15;;;;;;;7.25;3.78;;;;;;;3.75;100.00;101873.88;5020861;28;20083;-81
2023/11/25 01:18:41;;;;;;;8.57;3.72;;;;;;;3.83;100.00;101876.00;5020799;28;20071;-81
2023/11/25 01:21:07;;;;;;;9.45;3.80;;;;;;;3.83;100.00;101876.00;5021590;28;20075;-80
2023/11/25 01:23:32;;;;;;;8.68;3.72;;;;;;;3.81;100.00;101867.28;5020750;28;20506;-81
2023/11/25 01:25:58;;;;;;;8.82;4.25;;;;;;;3.81;100.00;101870.81;5020498;28;20039;-81
2023/11/25 01:28:24;;;;;;;11.65;3.90;;;;;;;3.83;100.00;101860.03;5020571;28;20424;-80
2023/11/25 01:30:50;;;;;;;8.27;3.80;;;;;;;3.90;100.00;101864.00;5003319;28;20033;-81
2023/11/25 01:33:15;;;;;;;7.53;3.70;;;;;;;3.94;100.00;101866.34;5020610;28;20040;-80
2023/11/25 01:35:43;;;;;;;12.50;3.95;;;;;;;3.99;100.00;101857.19;5036410;28;20395;-80
2023/11/25 01:38:09;;;;;;;12.07;3.85;;;;;;;4.02;100.00;101857.81;5020433;28;20025;-81
2023/11/25 01:40:36;;;;;;;8.85;4.15;;;;;;;4.02;100.00;101852.50;5020357;28;20052;-81
2023/11/25 01:43:08;;;;;;;11.10;4.00;;;;;;;4.04;100.00;101855.91;5037121;28;20468;-80
2023/11/25 01:45:33;;;;;;;10.68;3.55;;;;;;;3.97;100.00;101834.22;5020900;28;20139;-80
2023/11/25 01:48:02;;;;;;;11.65;4.45;;;;;;;4.08;100.00;101851.25;5019788;28;20522;-81
2023/11/25 01:50:33;;;;;;;9.68;4.57;;;;;;;4.14;100.00;101843.66;5037056;28;20040;-80
2023/11/25 01:52:59;;;;;;;8.10;4.18;;;;;;;4.14;100.00;101841.00;5036810;28;20047;-80
2023/11/25 01:55:27;;;;;;;6.18;3.38;;;;;;;4.13;100.00;101841.97;5020103;28;20032;-81
2023/11/25 01:57:54;;;;;;;7.55;3.85;;;;;;;4.10;100.00;101846.63;5020295;28;20029;-81
2023/11/25 02:00:23;;;;;;;7.25;3.15;;;;;;;4.11;100.00;101845.69;5020094;28;20033;-81
2023/11/25 02:02:50;;;;;;;8.73;3.80;;;;;;;4.18;100.00;101849.59;5036624;28;20040;-81
2023/11/25 02:05:16;;;;;;;10.90;4.05;;;;;;;4.22;100.00;101844.94;5019667;28;20518;-81
2023/11/25 02:07:42;;;;;;;8.73;3.78;;;;;;;4.24;100.00;101833.22;5019995;28;20133;-81
2023/11/25 02:10:10;;;;;;;7.95;3.95;;;;;;;4.16;100.00;101823.13;5019711;28;20123;-81
2023/11/25 02:12:38;;;;;;;7.65;3.63;;;;;;;4.03;100.00;101824.94;5019970;28;20141;-81
2023/11/25 02:15:11;;;;;;;12.77;4.25;;;;;;;3.94;100.00;101825.56;5036649;28;20033;-81
2023/11/25 02:17:38;;;;;;;11.07;4.03;;;;;;;3.86;100.00;101823.44;5021078;28;20029;-80
2023/11/25 02:20:08;;;;;;;8.10;3.80;;;;;;;3.82;100.00;101826.44;5003304;28;20041;-81
2023/11/25 02:22:36;;;;;;;9.00;3.83;;;;;;;3.86;100.00;101825.25;5020085;28;20036;-81
2023/11/25 02:25:03;;;;;;;8.05;3.40;;;;;;;3.92;100.00;101825.69;5035717;28;20025;-80
2023/11/25 02:27:29;;;;;;;7.90;3.97;;;;;;;3.94;100.00;101818.47;5019562;28;20036;-81
2023/11/25 02:29:55;;;;;;;8.77;4.10;;;;;;;4.00;100.00;101813.66;5019679;28;20073;-81
2023/11/25 02:32:25;;;;;;;6.05;3.67;;;;;;;4.06;100.00;101814.06;5037239;28;20057;-82
2023/11/25 02:34:52;;;;;;;7.85;4.53;;;;;;;4.12;100.00;101823.44;5036208;28;20033;-81
2023/11/25 02:37:19;;;;;;;7.70;3.47;;;;;;;4.17;100.00;101811.50;5019557;28;20037;-81
2023/11/25 02:39:45;;;;;;;8.50;4.15;;;;;;;4.25;100.00;101818.09;5020426;28;20033;-81
2023/11/25 02:42:12;;;;;;;7.57;3.55;;;;;;;4.32;100.00;101811.38;5022349;28;20482;-80
2023/11/25 02:44:38;;;;;;;7.93;3.90;;;;;;;4.35;100.00;101804.03;5042541;28;20032;-81
2023/11/25 02:47:04;;;;;;;9.68;3.83;;;;;;;4.42;100.00;101799.13;5042084;28;20055;-80
2023/11/25 02:49:30;;;;;;;9.77;3.55;;;;;;;4.46;100.00;101807.72;5042189;28;20112;-81
2023/11/25 02:51:56;;;;;;;7.22;3.97;;;;;;;4.48;100.00;101804.00;5042037;28;20070;-81
2023/11/25 02:54:22;;;;;;;8.95;3.55;;;;;;;4.52;100.00;101805.47;5042010;28;20107;-81
2023/11/25 02:56:48;;;;;;;6.80;3.78;;;;;;;4.56;100.00;101812.28;5058747;28;20048;-81
2023/11/25 02:59:17;;;;;;;5.93;4.00;;;;;;;4.57;100.00;101810.47;5025596;28;20032;-80
2023/11/25 03:01:48;;;;;;;8.90;4.15;;;;;;;4.61;100.00;101819.94;5042602;28;20032;-81
2023/11/25 03:04:15;;;;;;;9.23;3.63;;;;;;;4.63;100.00;101815.34;5042624;28;20498;-80
2023/11/25 03:06:42;;;;;;;8.35;3.80;;;;;;;4.67;100.00;101813.31;5042223;28;20037;-81
2023/11/25 03:09:10;;;;;;;7.22;3.85;;;;;;;4.67;100.00;101806.19;5009772;28;20055;-81
2023/11/25 03:11:35;;;;;;;9.07;3.83;;;;;;;4.67;100.00;101813.31;5058474;28;20431;-81
2023/11/25 03:14:01;;;;;;;10.10;3.65;;;;;;;4.69;100.00;101812.25;5042334;28;20071;-81
2023/11/25 03:16:26;;;;;;;7.93;3.83;;;;;;;4.73;100.00;101812.88;5025798;28;20029;-81
2023/11/25 03:18:52;;;;;;;9.23;3.63;;;;;;;4.72;100.00;101805.84;5058648;28;20039;-81
2023/11/25 03:21:19;;;;;;;6.25;3.70;;;;;;;4.74;100.00;101809.25;5058311;28;20040;-80
2023/11/25 03:23:51;;;;;;;9.77;3.80;;;;;;;4.74;100.00;101806.59;5042319;28;20039;-81
2023/11/25 03:26:17;;;;;;;8.90;3.38;;;;;;;4.75;100.00;101797.63;5042507;28;20029;-80
2023/11/25 03:28:44;;;;;;;7.72;3.22;;;;;;;4.75;100.00;101801.13;5041915;28;20067;-81
2023/11/25 03:31:10;;;;;;;7.70;3.85;;;;;;;4.76;100.00;101796.66;5042312;28;20056;-81
2023/11/25 03:33:36;;;;;;;8.90;3.80;;;;;;;4.77;100.00;101798.38;5025595;28;20061;-81
2023/11/25 03:36:03;;;;;;;5.10;3.22;;;;;;;4.75;100.00;101795.81;5025518;28;20059;-81
2023/11/25 03:38:29;;;;;;;12.65;4.35;;;;;;;4.72;100.00;101777.38;5041909;28;20111;-81
2023/11/25 03:40:56;;;;;;;8.88;4.50;;;;;;;4.73;100.00;101779.06;5025390;28;20368;-80
2023/11/25 03:43:23;;;;;;;8.02;3.58;;;;;;;4.74;100.00;101772.78;5009302;28;20059;-80
2023/11/25 03:45:50;;;;;;;9.23;3.70;;;;;;;4.75;100.00;101765.66;5041645;28;20036;-81
2023/11/25 03:48:17;;;;;;;10.68;3.60;;;;;;;4.76;100.00;101773.53;5042121;28;20057;-81
2023/11/25 03:50:45;;;;;;;9.25;4.53;;;;;;;4.79;100.00;101775.97;5025353;28;20063;-81
2023/11/25 03:53:11;;;;;;;9.35;3.40;;;;;;;4.82;100.00;101770.41;5040327;28;20029;-81
2023/11/25 03:55:37;;;;;;;5.75;3.45;;;;;;;4.81;100.00;101760.69;5022057;28;20033;-81
2023/11/25 03:58:04;;;;;;;7.47;3.60;;;;;;;4.85;100.00;101761.34;5022131;28;20044;-81
2023/11/25 04:00:32;;;;;;;9.95;3.75;;;;;;;4.87;100.00;101755.88;5022802;28;20084;-81
2023/11/25 04:02:57;;;;;;;7.32;3.53;;;;;;;4.89;100.00;101760.13;5038660;28;20029;-81
2023/11/25 04:05:23;;;;;;;7.28;3.60;;;;;;;4.90;100.00;101739.69;5055109;28;20056;-81
2023/11/25 04:07:49;;;;;;;9.85;3.80;;;;;;;4.91;100.00;101744.03;5038437;28;20437;-81
2023/11/25 04:10:15;;;;;;;6.97;3.90;;;;;;;4.93;100.00;101739.47;5022181;28;20040;-80
2023/11/25 04:12:42;;;;;;;6.88;3.45;;;;;;;4.97;100.00;101738.25;5021838;28;20062;-81
2023/11/25 04:15:10;;;;;;;7.57;3.33;;;;;;;4.98;100.00;101731.97;5054453;28;20036;-80
2023/11/25 04:17:36;;;;;;;6.82;4.03;;;;;;;4.98;100.00;101738.13;5021933;28;20036;-81
2023/11/25 04:20:10;;;;;;;12.52;3.83;;;;;;;4.98;100.00;101730.16;5037963;28;20060;-81
2023/11/25 04:22:43;;;;;;;8.02;3.92;;;;;;;4.99;100.00;101723.00;5024436;28;20040;-81
2023/11/25 04:25:13;;;;;;;8.45;4.05;;;;;;;4.99;100.00;101717.66;5037896;28;20033;-81
2023/11/25 04:27:40;;;;;;;9.52;3.80;;;;;;;4.99;100.00;101720.31;5054670;28;20028;-81
2023/11/25 04:30:11;;;;;;;7.90;3.42;;;;;;;5.00;100.00;101717.56;5037571;28;20037;-81
2023/11/25 04:32:37;;;;;;;10.43;3.95;;;;;;;4.99;100.00;101721.16;5038177;28;20475;-81
2023/11/25 04:35:06;;;;;;;7.80;3.47;;;;;;;4.99;100.00;101720.31;5021630;28;20122;-82
2023/11/25 04:37:37;;;;;;;7.75;3.67;;;;;;;5.04;100.00;101721.69;5038274;28;20033;-80
2023/11/25 04:40:06;;;;;;;8.48;3.15;;;;;;;5.04;100.00;101719.00;5005701;28;20060;-80
2023/11/25 04:42:33;;;;;;;8.32;3.75;;;;;;;5.02;100.00;101714.75;5038190;28;20120;-80
2023/11/25 04:44:59;;;;;;;9.40;3.58;;;;;;;5.03;100.00;101719.16;5054150;28;20029;-80
2023/11/25 04:47:26;;;;;;;8.73;4.28;;;;;;;4.99;100.00;101713.19;5021103;28;20048;-81
2023/11/25 04:49:52;;;;;;;7.07;4.03;;;;;;;4.99;100.00;101715.84;5005432;28;20033;-81
2023/11/25 04:52:18;;;;;;;7.65;4.03;;;;;;;5.00;100.00;101714.03;5037688;28;20134;-81
2023/11/25 04:54:44;;;;;;;12.38;3.90;;;;;;;5.01;100.00;101715.72;5021281;28;20491;-80
2023/11/25 04:57:09;;;;;;;7.57;3.65;;;;;;;4.99;100.00;101723.00;5021100;28;20055;-82
2023/11/25 04:59:36;;;;;;;7.65;3.70;;;;;;;5.01;100.00;101718.41;5020636;28;20108;-80
2023/11/25 05:02:03;;;;;;;9.80;3.67;;;;;;;4.99;100.00;101713.19;5037456;28;20475;-81
2023/11/25 05:04:30;;;;;;;6.80;3.83;;;;;;;5.01;100.00;101715.72;5037692;28;20194;-81
2023/11/25 05:06:56;;;;;;;8.88;3.58;;;;;;;5.03;100.00;101719.16;5020950;28;20029;-80
2023/11/25 05:09:25;;;;;;;11.38;3.80;;;;;;;5.02;100.00;101712.94;5020990;28;20029;-81
2023/11/25 05:11:54;;;;;;;9.07;3.67;;;;;;;5.04;100.00;101711.00;5053769;28;20033;-81
2023/11/25 05:14:20;;;;;;;8.15;4.03;;;;;;;5.07;100.00;101710.78;5020935;28;20158;-81
2023/11/25 05:16:46;;;;;;;11.35;4.75;;;;;;;5.13;100.00;101711.28;5020777;28;20465;-81
2023/11/25 05:19:12;;;;;;;7.55;4.00;;;;;;;5.16;100.00;101706.59;5036920;28;20033;-81
2023/11/25 05:21:38;;;;;;;10.93;4.30;;;;;;;5.21;100.00;101695.53;5021221;28;20045;-81
2023/11/25 05:24:04;;;;;;;8.63;3.75;;;;;;;5.23;100.00;101705.13;5053729;28;20494;-81
2023/11/25 05:26:30;;;;;;;9.40;4.13;;;;;;;5.25;100.00;101700.53;5037221;28;20036;-81
2023/11/25 05:28:59;;;;;;;11.90;4.45;;;;;;;5.20;100.00;101700.03;5036710;28;20399;-81
2023/11/25 05:31:26;;;;;;;10.13;4.18;;;;;;;5.26;100.00;101702.22;5053361;28;20068;-81
2023/11/25 05:33:52;;;;;;;14.88;5.10;;;;;;;5.22;100.00;101699.91;5036678;28;20094;-81
2023/11/25 05:36:18;;;;;;;10.43;4.00;;;;;;;5.20;100.00;101694.69;5020844;28;20413;-81
2023/11/25 05:38:44;;;;;;;10.13;4.85;;;;;;;5.18;100.00;101695.78;5020279;28;20463;-81
2023/11/25 05:41:11;;;;;;;8.60;4.00;;;;;;;5.18;100.00;101690.44;5020378;28;20037;-80
2023/11/25 05:43:36;;;;;;;12.82;4.97;;;;;;;5.13;100.00;101690.78;5052968;28;20063;-81
2023/11/25 05:46:02;;;;;;;10.20;4.05;;;;;;;5.15;100.00;101691.53;5036791;28;20067;-81
2023/11/25 05:48:28;;;;;;;11.25;4.55;;;;;;;5.14;100.00;101697.84;5020118;28;20441;-81
2023/11/25 05:50:54;;;;;;;12.45;4.60;;;;;;;5.13;100.00;101695.28;5020214;28;20036;-80
2023/11/25 05:53:19;;;;;;;8.07;4.20;;;;;;;5.10;100.00;101688.38;5020176;28;20033;-81
2023/11/25 05:55:45;;;;;;;10.65;4.10;;;;;;;5.10;100.00;101691.03;5036598;28;20029;-81
2023/11/25 05:58:13;;;;;;;9.63;4.03;;;;;;;5.10;100.00;101687.53;5036316;28;20104;-81
2023/11/25 06:00:38;;;;;;;12.45;4.15;;;;;;;5.09;100.00;101683.16;5020300;28;20051;-80
2023/11/25 06:03:04;;;;;;;11.07;4.47;;;;;;;5.10;100.00;101684.84;5036579;28;20029;-81
2023/11/25 06:05:30;;;;;;;9.50;4.50;;;;;;;5.12;100.00;101685.59;5052698;28;20380;-80
2023/11/25 06:07:55;;;;;;;9.90;3.65;;;;;;;5.12;100.00;101686.44;5019960;28;20147;-81
2023/11/25 06:10:22;;;;;;;8.63;4.07;;;;;;;5.13;100.00;101687.28;5019912;28;20127;-80
2023/11/25 06:12:48;;;;;;;6.88;3.80;;;;;;;5.11;100.00;101684.75;5054122;28;20099;-81
2023/11/25 06:15:15;;;;;;;11.43;4.90;;;;;;;5.07;100.00;101678.78;5019699;28;20049;-80
2023/11/25 06:17:44;;;;;;;9.40;4.30;;;;;;;5.09;100.00;101676.00;5035521;28;20029;-81
2023/11/25 06:20:11;;;;;;;8.10;4.35;;;;;;;5.11;100.00;101683.88;5052377;28;20112;-80
2023/11/25 06:22:37;;;;;;;6.75;4.60;;;;;;;5.09;100.00;101681.34;5035873;28;20503;-81
2023/11/25 06:25:05;;;;;;;8.60;4.25;;;;;;;5.09;100.00;101678.69;5052287;28;20032;-81
2023/11/25 06:27:33;;;;;;;9.93;4.72;;;;;;;5.07;100.00;101675.28;5036336;28;20458;-81
2023/11/25 06:30:00;;;;;;;12.40;4.10;;;;;;;5.07;100.00;101673.44;5036157;28;20037;-81
2023/11/25 06:32:27;;;;;;;8.93;4.35;;;;;;;5.07;100.00;101667.28;5052463;28;20379;-81
2023/11/25 06:34:56;;;;;;;8.57;4.47;;;;;;;5.05;100.00;101677.19;5019447;28;20053;-80
2023/11/25 06:37:23;;;;;;;11.65;4.13;;;;;;;5.07;100.00;101683.28;5036500;28;20464;-80
2023/11/25 06:39:49;;;;;;;8.45;4.18;;;;;;;5.07;100.00;101681.44;5035748;28;20025;-80
2023/11/25 06:42:16;;;;;;;11.82;4.50;;;;;;;5.04;100.00;101679.03;5019379;28;20107;-80
2023/11/25 06:44:43;;;;;;;10.00;4.53;;;;;;;5.00;100.00;101677.56;5019654;28;20029;-80
2023/11/25 06:47:11;;;;;;;9.38;4.45;;;;;;;4.96;100.00;101676.09;5035980;28;20040;-81
2023/11/25 06:49:36;;;;;;;7.25;5.13;;;;;;;4.95;100.00;101674.41;5019696;28;20068;-81
2023/11/25 06:52:03;;;;;;;11.13;5.00;;;;;;;4.90;100.00;101667.75;5019129;28;20056;-81
2023/11/25 06:54:31;;;;;;;12.15;4.80;;;;;;;4.90;100.00;101665.06;5036133;28;20033;-80
2023/11/25 06:56:56;;;;;;;11.05;5.10;;;;;;;4.88;100.00;101669.66;5019621;28;20037;-81
2023/11/25 06:59:22;;;;;;;9.25;3.92;;;;;;;4.85;100.00;101668.06;5019022;28;20477;-81
2023/11/25 07:01:47;;;;;;;12.32;4.53;;;;;;;4.80;100.00;101672.91;5019562;28;20043;-81
2023/11/25 07:04:14;;;;;;;14.93;5.18;;;;;;;4.77;100.00;101663.31;5035854;28;20119;-80
2023/11/25 07:06:39;;;;;;;11.77;4.80;;;;;;;4.73;100.00;101661.84;5019568;28;20033;-81
2023/11/25 07:09:06;;;;;;;15.75;6.32;;;;;;;4.70;100.00;101662.09;5035548;28;20442;-80
2023/11/25 07:11:33;;;;;;;10.35;5.40;;;;;;;4.67;100.00;101659.66;5035586;28;20454;-81
2023/11/25 07:13:59;;;;;;;12.27;5.70;;;;;;;4.63;100.00;101655.50;5035589;28;20411;-80
2023/11/25 07:16:25;;;;;;;13.15;5.55;;;;;;;4.63;100.00;101655.50;5052142;28;20025;-80
2023/11/25 07:18:50;;;;;;;19.15;6.85;;;;;;;4.61;100.00;101655.63;5018680;28;20044;-80
2023/11/25 07:21:16;;;;;;;22.17;7.22;;;;;;;4.59;100.00;101651.38;5035675;28;20037;-80
2023/11/25 07:23:45;;;;;;;14.77;6.95;;;;;;;4.61;100.00;101654.78;5035217;28;20044;-81
2023/11/25 07:26:12;;;;;;;12.93;6.32;;;;;;;4.61;100.00;101657.47;5019486;28;20032;-80
2023/11/25 07:28:40;;;;;;;13.43;5.22;;;;;;;4.62;100.00;101653.81;5036176;28;20052;-80
2023/11/25 07:31:07;;;;;;;14.32;5.18;;;;;;;4.64;100.00;101665.22;5023126;28;20100;-81
2023/11/25 07:33:33;;;;;;;21.65;5.47;;;;;;;4.67;100.00;101650.81;5023185;28;20029;-80
2023/11/25 07:36:00;;;;;;;14.73;6.05;;;;;;;4.67;100.00;101650.81;5055763;28;20455;-80
2023/11/25 07:38:25;;;;;;;17.75;6.30;;;;;;;4.66;100.00;101644.66;5039160;28;20148;-81
2023/11/25 07:40:51;;;;;;;15.48;6.07;;;;;;;4.67;100.00;101637.50;5022526;28;20115;-80
2023/11/25 07:43:17;;;;;;;20.65;7.88;;;;;;;4.67;100.00;101637.50;5039087;28;20063;-81
2023/11/25 07:45:44;;;;;;;17.05;5.90;;;;;;;4.68;100.00;101628.53;5038867;28;20043;-80
2023/11/25 07:48:10;;;;;;;19.63;6.53;;;;;;;4.69;100.00;101628.44;5038901;28;20052;-81
2023/11/25 07:50:37;;;;;;;20.77;7.32;;;;;;;4.71;100.00;101639.81;5038786;28;20123;-81
2023/11/25 07:53:03;;;;;;;15.07;5.50;;;;;;;4.72;100.00;101635.34;5038973;28;20029;-81
2023/11/25 07:55:29;;;;;;;20.20;7.07;;;;;;;4.75;100.00;101635.09;5022816;28;20056;-80
2023/11/25 07:57:54;;;;;;;17.38;6.18;;;;;;;4.75;100.00;101633.28;5022218;28;20029;-81
2023/11/25 08:00:25;;;;;;;19.77;6.82;;;;;;;4.72;100.00;101630.84;5022342;28;20029;-81
2023/11/25 08:02:55;;;;;;;17.55;6.13;;;;;;;4.78;100.00;101641.03;5039300;28;20029;-81
2023/11/25 08:05:23;;;;;;;20.00;6.18;;;;;;;4.78;100.00;101635.69;5039094;28;20036;-81
2023/11/25 08:07:52;;;;;;;15.10;5.70;;;;;;;4.74;100.00;101631.59;5055175;28;20037;-80
2023/11/25 08:10:20;;;;;;;15.95;6.10;;;;;;;4.77;100.00;101634.03;5039023;28;20083;-81
2023/11/25 08:12:45;;;;;;;18.13;6.07;;;;;;;4.80;100.00;101633.78;5055135;28;20471;-81
2023/11/25 08:15:13;;;;;;;16.67;5.43;;;;;;;4.84;100.00;101635.25;5021762;28;20044;-81
2023/11/25 08:17:41;;;;;;;16.95;5.88;;;;;;;4.79;100.00;101628.56;5021947;28;20044;-80
2023/11/25 08:20:09;;;;;;;14.38;5.45;;;;;;;4.79;100.00;101631.22;5038288;28;20547;-80
2023/11/25 08:22:38;;;;;;;18.67;6.07;;;;;;;4.83;100.00;101628.22;5038728;28;20029;-81
2023/11/25 08:25:07;;;;;;;19.27;7.07;;;;;;;4.84;100.00;101624.59;5021956;28;20035;-81
2023/11/25 08:27:37;;;;;;;20.40;6.88;;;;;;;4.87;100.00;101635.97;5006035;28;20500;-81
2023/11/25 08:30:07;;;;;;;20.77;6.38;;;;;;;4.85;100.00;101628.94;5021538;28;20098;-81
2023/11/25 08:32:42;;;;;;;24.40;9.93;;;;;;;4.85;100.00;101623.63;5022167;28;20041;-81
2023/11/25 08:35:09;;;;;;;15.90;6.40;;;;;;;4.86;100.00;101627.13;5021041;28;20293;-80
2023/11/25 08:37:41;;;;;;;16.70;7.13;;;;;;;4.90;100.00;101625.94;5020516;28;20037;-81
2023/11/25 08:40:16;;;;;;;18.27;6.13;;;;;;;4.92;100.00;101625.81;5019873;28;20033;-79
2023/11/25 08:42:45;;;;;;;18.20;6.25;;;;;;;4.92;100.00;101625.81;5006105;28;20475;-80
2023/11/25 08:45:11;;;;;;;15.98;5.90;;;;;;;4.94;100.00;101621.22;5037944;28;20037;-80
2023/11/25 08:47:38;;;;;;;24.33;9.48;;;;;;;4.97;100.00;101613.81;5054035;28;20375;-80
2023/11/25 08:50:08;;;;;;;18.08;6.28;;;;;;;4.94;100.00;101618.53;5038044;28;20072;-80
2023/11/25 08:52:38;;;;;;;18.20;6.25;;;;;;;4.93;100.00;101611.53;5021588;28;20057;-80
2023/11/25 08:55:10;;;;;;;20.23;6.93;;;;;;;4.98;100.00;101607.53;5053772;28;20538;-80
2023/11/25 08:57:36;;;;;;;16.90;6.75;;;;;;;4.96;100.00;101603.28;5037990;28;20483;-80
2023/11/25 09:00:14;;;;;;;17.65;7.95;;;;;;;4.91;100.00;101613.47;5037072;28;20063;-81
2023/11/25 09:02:44;;;;;;;18.65;7.20;;;;;;;4.92;100.00;101599.16;5054109;28;20029;-81
2023/11/25 09:05:10;;;;;;;21.75;7.30;;;;;;;5.00;100.00;101597.63;5020983;28;20044;-81
2023/11/25 09:07:40;;;;;;;20.50;7.28;;;;;;;4.97;100.00;101589.00;5037030;28;20029;-81
2023/11/25 09:10:07;;;;;;;17.63;6.90;;;;;;;4.96;100.00;101589.97;5021015;28;20098;-81
2023/11/25 09:12:34;;;;;;;18.58;6.85;;;;;;;4.99;100.00;101589.72;5020842;28;20037;-81
2023/11/25 09:15:00;;;;;;;18.48;7.03;;;;;;;4.95;100.00;101589.13;5036974;28;20131;-81
2023/11/25 09:17:25;;;;;;;21.40;8.05;;;;;;;4.95;100.00;101583.78;5036747;28;20040;-81
2023/11/25 09:19:51;;;;;;;17.75;8.25;;;;;;;5.03;100.00;101593.88;5036704;28;20028;-81
2023/11/25 09:22:17;;;;;;;19.15;7.70;;;;;;;5.04;100.00;101596.38;5020588;28;20033;-81
2023/11/25 09:24:44;;;;;;;19.63;7.82;;;;;;;5.08;100.00;101589.03;5020615;28;20422;-81
2023/11/25 09:27:13;;;;;;;21.33;9.05;;;;;;;5.14;100.00;101587.69;5053189;28;20094;-81
2023/11/25 09:29:42;;;;;;;14.70;7.10;;;;;;;5.16;100.00;101589.28;5037194;28;20033;-81
2023/11/25 09:32:07;;;;;;;17.98;7.35;;;;;;;5.24;100.00;101592.19;5020433;28;20423;-81
2023/11/25 09:34:33;;;;;;;16.17;6.97;;;;;;;5.31;100.00;101591.69;5020506;28;20140;-81
2023/11/25 09:36:59;;;;;;;16.10;6.88;;;;;;;5.34;100.00;101589.63;5020068;28;20079;-81
2023/11/25 09:39:25;;;;;;;14.65;6.70;;;;;;;5.40;100.00;101585.59;5018879;28;20037;-80
2023/11/25 09:41:51;;;;;;;21.05;7.70;;;;;;;5.36;100.00;101581.50;5036565;28;20036;-86
2023/11/25 09:44:18;;;;;;;17.35;7.45;;;;;;;5.41;100.00;101590.84;5036959;28;20033;-86
2023/11/25 09:47:05;;;;;;;21.35;7.85;;;;;;;5.53;100.00;101582.81;5052807;28;20021;-86
2023/11/25 09:49:31;;;;;;;16.10;7.15;;;;;;;5.55;100.00;101572.88;5037669;28;20087;-86
2023/11/25 09:52:04;;;;;;;15.30;7.65;;;;;;;5.66;100.00;101568.41;5052047;28;20025;-87
2023/11/25 09:54:30;;;;;;;14.13;7.75;;;;;;;5.84;100.00;101571.38;5020519;28;20387;-87
2023/11/25 09:56:56;;;;;;;18.60;6.95;;;;;;;6.01;100.00;101569.19;5052962;28;20116;-86
2023/11/25 09:59:24;;;;;;;16.35;7.80;;;;;;;6.13;100.00;101577.00;5052833;28;20104;-86
2023/11/25 10:01:50;;;;;;;12.02;6.65;;;;;;;6.09;100.00;101572.91;5003832;28;20411;-86
2023/11/25 10:04:16;;;;;;;16.52;7.22;;;;;;;6.23;100.00;101568.25;5053606;28;20025;-86
2023/11/25 10:06:42;;;;;;;11.48;7.13;;;;;;;6.44;100.00;101568.28;5019692;28;20031;-86
2023/11/25 10:09:09;;;;;;;16.35;6.50;;;;;;;6.54;100.00;101578.06;5052498;28;20475;-86
2023/11/25 10:11:35;;;;;;;18.05;6.80;;;;;;;6.71;100.00;101584.63;5036325;28;20524;-85
2023/11/25 10:14:06;;;;;;;18.73;8.07;;;;;;;6.85;100.00;101583.44;5052934;28;20131;-85
2023/11/25 10:16:31;;;;;;;14.90;7.93;;;;;;;6.82;100.00;101578.38;5037121;28;20036;-86
2023/11/25 10:18:57;;;;;;;12.43;7.28;;;;;;;6.70;100.00;101568.75;5053859;28;20029;-86
2023/11/25 10:21:23;;;;;;;16.52;7.10;;;;;;;6.66;100.00;101573.50;5052936;28;20379;-86
2023/11/25 10:23:50;;;;;;;14.00;7.00;;;;;;;6.75;100.00;101578.06;5054073;28;20537;-86
2023/11/25 10:26:18;;;;;;;14.45;6.97;;;;;;;6.73;100.00;101576.50;5019719;28;20037;-86
2023/11/25 10:28:48;;;;;;;12.48;6.38;;;;;;;6.79;100.00;101578.66;5036124;28;20040;-86
2023/11/25 10:31:15;;;;;;;12.25;6.25;;;;;;;6.88;100.00;101574.31;5036613;28;20087;-86
2023/11/25 10:33:44;;;;;;;14.57;7.50;;;;;;;6.86;100.00;101560.28;5019592;28;20368;-86
2023/11/25 10:36:10;;;;;;;10.60;6.30;;;;;;;6.90;100.00;101564.34;5052442;28;20485;-85
2023/11/25 10:38:39;;;;;;;15.00;6.72;;;;;;;6.84;100.00;101563.06;5053264;28;20025;-86
2023/11/25 10:41:05;;;;;;;13.98;7.15;;;;;;;6.83;100.00;101559.53;5052706;28;20104;-86
2023/11/25 10:43:32;;;;;;;12.20;6.07;;;;;;;7.09;100.00;101555.59;5052498;28;20489;-87
2023/11/25 10:46:05;;;;;;;12.60;5.65;;;;;;;7.15;100.00;101552.41;5052507;28;20463;-86
2023/11/25 10:48:38;;;;;;;13.30;7.22;;;;;;;7.23;100.00;101550.72;5053201;28;20037;-85
2023/11/25 10:51:08;;;;;;;13.60;6.60;;;;;;;7.13;100.00;101549.00;5036514;28;20483;-86
2023/11/25 10:53:36;;;;;;;12.75;6.50;;;;;;;7.04;100.00;101551.50;5052250;28;20471;-86
2023/11/25 10:56:03;;;;;;;13.30;5.55;;;;;;;7.09;100.00;101548.41;5035317;28;20045;-86
2023/11/25 10:58:31;;;;;;;19.48;6.70;;;;;;;7.01;100.00;101546.41;5051540;28;20036;-85
2023/11/25 11:01:00;;;;;;;16.48;7.60;;;;;;;7.05;100.00;101547.00;5052742;28;20131;-86
2023/11/25 11:03:32;;;;;;;12.43;6.20;;;;;;;7.12;100.00;101542.81;5037541;28;20104;-86
2023/11/25 11:06:01;;;;;;;13.43;6.93;;;;;;;7.16;100.00;101543.38;5057106;28;20112;-82
2023/11/25 11:08:37;;;;;;;15.15;6.70;;;;;;;7.16;100.00;101548.72;5055464;28;20440;-80
2023/11/25 11:11:31;;;;;;;17.05;6.07;;;;;;;7.13;100.00;101543.66;5022357;28;20359;-82
2023/11/25 11:14:13;;;;;;;13.18;6.13;;;;;;;7.32;100.00;101538.38;5055547;28;20032;-81
2023/11/25 11:17:03;;;;;;;12.17;5.67;;;;;;;7.49;100.00;101531.53;5039446;28;20033;-81
2023/11/25 11:19:42;;;;;;;15.23;6.50;;;;;;;7.52;100.00;101527.75;5022719;28;20376;-82
2023/11/25 11:22:11;;;;;;;14.32;7.38;;;;;;;7.46;100.00;101513.94;5022580;28;20430;-82